sensor_id;sensor_type;location;lat;lon;timestamp;P1;durP1;ratioP1;P2;durP2;ratioP2
4377;SDS011;2203;53.686;9.994;2023-02-02T00:00:48;34.90;;;4.97;;
4377;SDS011;2203;53.686;9.994;2023-02-02T00:03:13;30.80;;;4.77;;
4377;SDS011;2203;53.686;9.994;2023-02-02T00:05:49;40.37;;;7.20;;
4377;SDS011;2203;53.686;9.994;2023-02-02T00:08:16;38.53;;;6.17;;
4377;SDS011;2203;53.686;9.994;2023-02-02T00:10:42;45.50;;;6.57;;
4377;SDS011;2203;53.686;9.994;2023-02-02T00:13:08;46.20;;;5.80;;
4377;SDS011;2203;53.686;9.994;2023-02-02T00:15:33;53.83;;;5.80;;
4377;SDS011;2203;53.686;9.994;2023-02-02T00:17:59;49.40;;;6.83;;
4377;SDS011;2203;53.686;9.994;2023-02-02T00:20:24;40.17;;;5.20;;
4377;SDS011;2203;53.686;9.994;2023-02-02T00:22:49;33.20;;;5.20;;
4377;SDS011;2203;53.686;9.994;2023-02-02T00:25:15;46.03;;;5.70;;
4377;SDS011;2203;53.686;9.994;2023-02-02T00:27:40;43.30;;;5.53;;
4377;SDS011;2203;53.686;9.994;2023-02-02T00:30:06;44.43;;;5.70;;
4377;SDS011;2203;53.686;9.994;2023-02-02T00:32:32;37.13;;;5.97;;
4377;SDS011;2203;53.686;9.994;2023-02-02T00:34:58;37.37;;;5.23;;
4377;SDS011;2203;53.686;9.994;2023-02-02T00:37:23;34.80;;;5.10;;
4377;SDS011;2203;53.686;9.994;2023-02-02T00:39:48;46.87;;;5.47;;
4377;SDS011;2203;53.686;9.994;2023-02-02T00:42:14;28.50;;;4.13;;
4377;SDS011;2203;53.686;9.994;2023-02-02T00:44:39;40.33;;;4.47;;
4377;SDS011;2203;53.686;9.994;2023-02-02T00:47:23;37.37;;;4.10;;
4377;SDS011;2203;53.686;9.994;2023-02-02T00:49:48;37.83;;;4.07;;
4377;SDS011;2203;53.686;9.994;2023-02-02T00:52:14;21.77;;;3.77;;
4377;SDS011;2203;53.686;9.994;2023-02-02T00:54:39;26.17;;;3.87;;
4377;SDS011;2203;53.686;9.994;2023-02-02T00:57:05;38.53;;;4.33;;
4377;SDS011;2203;53.686;9.994;2023-02-02T00:59:30;45.87;;;5.00;;
4377;SDS011;2203;53.686;9.994;2023-02-02T01:01:56;37.67;;;4.37;;
4377;SDS011;2203;53.686;9.994;2023-02-02T01:04:21;28.47;;;5.07;;
4377;SDS011;2203;53.686;9.994;2023-02-02T01:06:47;23.83;;;4.27;;
4377;SDS011;2203;53.686;9.994;2023-02-02T01:09:12;32.57;;;5.00;;
4377;SDS011;2203;53.686;9.994;2023-02-02T01:11:38;44.03;;;4.20;;
4377;SDS011;2203;53.686;9.994;2023-02-02T01:14:03;31.70;;;4.50;;
4377;SDS011;2203;53.686;9.994;2023-02-02T01:16:29;37.30;;;4.17;;
4377;SDS011;2203;53.686;9.994;2023-02-02T01:18:54;33.77;;;4.50;;
4377;SDS011;2203;53.686;9.994;2023-02-02T01:21:20;20.97;;;4.10;;
4377;SDS011;2203;53.686;9.994;2023-02-02T01:23:45;32.27;;;4.00;;
4377;SDS011;2203;53.686;9.994;2023-02-02T01:26:11;35.70;;;4.47;;
4377;SDS011;2203;53.686;9.994;2023-02-02T01:28:37;32.70;;;5.50;;
4377;SDS011;2203;53.686;9.994;2023-02-02T01:31:08;30.80;;;4.83;;
4377;SDS011;2203;53.686;9.994;2023-02-02T01:33:36;37.93;;;5.37;;
4377;SDS011;2203;53.686;9.994;2023-02-02T01:36:03;40.97;;;4.10;;
4377;SDS011;2203;53.686;9.994;2023-02-02T01:38:29;26.93;;;4.70;;
4377;SDS011;2203;53.686;9.994;2023-02-02T01:40:55;25.27;;;4.00;;
4377;SDS011;2203;53.686;9.994;2023-02-02T01:43:25;31.10;;;4.13;;
4377;SDS011;2203;53.686;9.994;2023-02-02T01:45:56;24.43;;;3.50;;
4377;SDS011;2203;53.686;9.994;2023-02-02T01:48:27;34.10;;;4.60;;
4377;SDS011;2203;53.686;9.994;2023-02-02T01:50:56;23.87;;;4.53;;
4377;SDS011;2203;53.686;9.994;2023-02-02T01:53:24;33.57;;;4.00;;
4377;SDS011;2203;53.686;9.994;2023-02-02T01:55:50;33.83;;;3.43;;
4377;SDS011;2203;53.686;9.994;2023-02-02T01:58:18;25.17;;;3.33;;
4377;SDS011;2203;53.686;9.994;2023-02-02T02:00:50;27.60;;;4.00;;
4377;SDS011;2203;53.686;9.994;2023-02-02T02:03:17;32.80;;;3.60;;
4377;SDS011;2203;53.686;9.994;2023-02-02T02:06:06;28.43;;;3.90;;
4377;SDS011;2203;53.686;9.994;2023-02-02T02:08:37;41.27;;;3.60;;
4377;SDS011;2203;53.686;9.994;2023-02-02T02:11:04;28.57;;;3.37;;
4377;SDS011;2203;53.686;9.994;2023-02-02T02:13:30;17.43;;;2.73;;
4377;SDS011;2203;53.686;9.994;2023-02-02T02:22:37;19.63;;;3.00;;
4377;SDS011;2203;53.686;9.994;2023-02-02T02:28:47;20.33;;;3.10;;
4377;SDS011;2203;53.686;9.994;2023-02-02T02:39:41;20.97;;;3.77;;
4377;SDS011;2203;53.686;9.994;2023-02-02T02:42:12;39.20;;;3.37;;
4377;SDS011;2203;53.686;9.994;2023-02-02T02:44:40;18.73;;;2.77;;
4377;SDS011;2203;53.686;9.994;2023-02-02T02:47:06;34.87;;;4.00;;
4377;SDS011;2203;53.686;9.994;2023-02-02T02:49:32;30.37;;;5.57;;
4377;SDS011;2203;53.686;9.994;2023-02-02T02:51:57;31.97;;;3.30;;
4377;SDS011;2203;53.686;9.994;2023-02-02T02:54:32;38.47;;;4.33;;
4377;SDS011;2203;53.686;9.994;2023-02-02T02:57:33;24.33;;;3.50;;
4377;SDS011;2203;53.686;9.994;2023-02-02T03:00:04;33.47;;;3.67;;
4377;SDS011;2203;53.686;9.994;2023-02-02T03:03:10;23.73;;;3.87;;
4377;SDS011;2203;53.686;9.994;2023-02-02T03:10:34;9.50;;;1.30;;
4377;SDS011;2203;53.686;9.994;2023-02-02T03:13:00;19.80;;;2.07;;
4377;SDS011;2203;53.686;9.994;2023-02-02T03:15:31;19.90;;;3.40;;
4377;SDS011;2203;53.686;9.994;2023-02-02T03:17:57;17.00;;;2.53;;
4377;SDS011;2203;53.686;9.994;2023-02-02T03:20:22;16.07;;;2.30;;
4377;SDS011;2203;53.686;9.994;2023-02-02T03:22:47;22.73;;;3.70;;
4377;SDS011;2203;53.686;9.994;2023-02-02T03:25:13;19.63;;;2.27;;
4377;SDS011;2203;53.686;9.994;2023-02-02T03:27:39;10.23;;;2.10;;
4377;SDS011;2203;53.686;9.994;2023-02-02T03:30:05;7.67;;;1.60;;
4377;SDS011;2203;53.686;9.994;2023-02-02T03:32:34;20.00;;;2.10;;
4377;SDS011;2203;53.686;9.994;2023-02-02T03:35:00;12.33;;;2.00;;
4377;SDS011;2203;53.686;9.994;2023-02-02T03:37:25;9.23;;;2.00;;
4377;SDS011;2203;53.686;9.994;2023-02-02T03:39:51;22.80;;;2.30;;
4377;SDS011;2203;53.686;9.994;2023-02-02T03:42:16;21.27;;;2.20;;
4377;SDS011;2203;53.686;9.994;2023-02-02T03:44:41;19.30;;;2.70;;
4377;SDS011;2203;53.686;9.994;2023-02-02T03:47:07;22.33;;;2.53;;
4377;SDS011;2203;53.686;9.994;2023-02-02T03:49:32;17.80;;;2.17;;
4377;SDS011;2203;53.686;9.994;2023-02-02T03:51:58;25.77;;;3.13;;
4377;SDS011;2203;53.686;9.994;2023-02-02T03:54:23;34.47;;;3.20;;
4377;SDS011;2203;53.686;9.994;2023-02-02T03:56:48;28.37;;;3.57;;
4377;SDS011;2203;53.686;9.994;2023-02-02T03:59:14;28.43;;;2.60;;
4377;SDS011;2203;53.686;9.994;2023-02-02T04:01:39;31.57;;;4.70;;
4377;SDS011;2203;53.686;9.994;2023-02-02T04:04:04;22.03;;;2.70;;
4377;SDS011;2203;53.686;9.994;2023-02-02T04:06:30;21.40;;;2.90;;
4377;SDS011;2203;53.686;9.994;2023-02-02T04:08:55;17.90;;;2.43;;
4377;SDS011;2203;53.686;9.994;2023-02-02T04:11:21;16.27;;;2.50;;
4377;SDS011;2203;53.686;9.994;2023-02-02T04:13:46;23.53;;;3.63;;
4377;SDS011;2203;53.686;9.994;2023-02-02T04:16:11;30.80;;;2.97;;
4377;SDS011;2203;53.686;9.994;2023-02-02T04:18:37;19.27;;;3.40;;
4377;SDS011;2203;53.686;9.994;2023-02-02T04:21:03;19.50;;;2.50;;
4377;SDS011;2203;53.686;9.994;2023-02-02T04:23:29;14.00;;;2.30;;
4377;SDS011;2203;53.686;9.994;2023-02-02T04:25:55;16.13;;;2.67;;
4377;SDS011;2203;53.686;9.994;2023-02-02T04:28:22;17.13;;;3.67;;
4377;SDS011;2203;53.686;9.994;2023-02-02T04:30:48;29.23;;;2.77;;
4377;SDS011;2203;53.686;9.994;2023-02-02T04:33:14;23.23;;;2.93;;
4377;SDS011;2203;53.686;9.994;2023-02-02T04:35:41;31.07;;;2.93;;
4377;SDS011;2203;53.686;9.994;2023-02-02T04:38:07;14.30;;;3.10;;
4377;SDS011;2203;53.686;9.994;2023-02-02T04:40:32;14.33;;;2.43;;
4377;SDS011;2203;53.686;9.994;2023-02-02T04:42:57;23.73;;;2.90;;
4377;SDS011;2203;53.686;9.994;2023-02-02T04:45:23;22.60;;;2.97;;
4377;SDS011;2203;53.686;9.994;2023-02-02T04:47:49;17.33;;;2.00;;
4377;SDS011;2203;53.686;9.994;2023-02-02T04:50:14;10.53;;;2.57;;
4377;SDS011;2203;53.686;9.994;2023-02-02T04:52:40;17.90;;;2.03;;
4377;SDS011;2203;53.686;9.994;2023-02-02T04:55:05;20.60;;;2.57;;
4377;SDS011;2203;53.686;9.994;2023-02-02T04:57:31;22.03;;;2.80;;
4377;SDS011;2203;53.686;9.994;2023-02-02T04:59:57;14.57;;;2.93;;
4377;SDS011;2203;53.686;9.994;2023-02-02T05:02:23;17.60;;;3.20;;
4377;SDS011;2203;53.686;9.994;2023-02-02T05:04:49;16.47;;;2.97;;
4377;SDS011;2203;53.686;9.994;2023-02-02T05:07:14;23.63;;;4.03;;
4377;SDS011;2203;53.686;9.994;2023-02-02T05:09:39;28.60;;;3.00;;
4377;SDS011;2203;53.686;9.994;2023-02-02T05:12:05;19.13;;;2.90;;
4377;SDS011;2203;53.686;9.994;2023-02-02T05:14:30;20.63;;;2.30;;
4377;SDS011;2203;53.686;9.994;2023-02-02T05:16:55;42.97;;;3.20;;
4377;SDS011;2203;53.686;9.994;2023-02-02T05:19:21;39.60;;;3.50;;
4377;SDS011;2203;53.686;9.994;2023-02-02T05:21:46;34.03;;;3.10;;
4377;SDS011;2203;53.686;9.994;2023-02-02T05:24:13;15.77;;;2.17;;
4377;SDS011;2203;53.686;9.994;2023-02-02T05:26:39;17.73;;;2.30;;
4377;SDS011;2203;53.686;9.994;2023-02-02T05:29:05;14.40;;;2.60;;
4377;SDS011;2203;53.686;9.994;2023-02-02T05:31:31;19.13;;;3.23;;
4377;SDS011;2203;53.686;9.994;2023-02-02T05:33:57;19.60;;;2.73;;
4377;SDS011;2203;53.686;9.994;2023-02-02T05:36:23;19.87;;;2.90;;
4377;SDS011;2203;53.686;9.994;2023-02-02T05:38:48;22.00;;;3.00;;
4377;SDS011;2203;53.686;9.994;2023-02-02T05:41:13;22.57;;;2.70;;
4377;SDS011;2203;53.686;9.994;2023-02-02T05:43:39;19.00;;;2.43;;
4377;SDS011;2203;53.686;9.994;2023-02-02T05:46:04;16.30;;;2.33;;
4377;SDS011;2203;53.686;9.994;2023-02-02T05:48:30;25.30;;;3.03;;
4377;SDS011;2203;53.686;9.994;2023-02-02T05:51:02;18.90;;;4.37;;
4377;SDS011;2203;53.686;9.994;2023-02-02T05:53:30;42.00;;;3.20;;
4377;SDS011;2203;53.686;9.994;2023-02-02T05:55:56;23.83;;;3.23;;
4377;SDS011;2203;53.686;9.994;2023-02-02T05:58:21;34.37;;;3.57;;
4377;SDS011;2203;53.686;9.994;2023-02-02T06:00:47;23.27;;;3.77;;
4377;SDS011;2203;53.686;9.994;2023-02-02T06:03:12;19.83;;;2.60;;
4377;SDS011;2203;53.686;9.994;2023-02-02T06:05:38;26.23;;;3.50;;
4377;SDS011;2203;53.686;9.994;2023-02-02T06:08:03;28.23;;;3.07;;
4377;SDS011;2203;53.686;9.994;2023-02-02T06:10:29;33.93;;;4.60;;
4377;SDS011;2203;53.686;9.994;2023-02-02T06:12:55;25.07;;;3.20;;
4377;SDS011;2203;53.686;9.994;2023-02-02T06:15:24;32.43;;;3.60;;
4377;SDS011;2203;53.686;9.994;2023-02-02T06:17:51;25.87;;;3.23;;
4377;SDS011;2203;53.686;9.994;2023-02-02T06:20:17;26.50;;;2.90;;
4377;SDS011;2203;53.686;9.994;2023-02-02T06:22:42;31.13;;;3.23;;
4377;SDS011;2203;53.686;9.994;2023-02-02T06:25:08;19.37;;;2.33;;
4377;SDS011;2203;53.686;9.994;2023-02-02T06:27:33;20.37;;;3.13;;
4377;SDS011;2203;53.686;9.994;2023-02-02T06:29:59;27.77;;;3.13;;
4377;SDS011;2203;53.686;9.994;2023-02-02T06:32:24;23.33;;;3.13;;
4377;SDS011;2203;53.686;9.994;2023-02-02T06:34:50;21.20;;;2.73;;
4377;SDS011;2203;53.686;9.994;2023-02-02T06:37:15;25.33;;;4.17;;
4377;SDS011;2203;53.686;9.994;2023-02-02T06:39:40;23.33;;;3.50;;
4377;SDS011;2203;53.686;9.994;2023-02-02T06:42:06;13.37;;;2.47;;
4377;SDS011;2203;53.686;9.994;2023-02-02T06:44:31;19.93;;;2.53;;
4377;SDS011;2203;53.686;9.994;2023-02-02T06:46:57;29.47;;;3.50;;
4377;SDS011;2203;53.686;9.994;2023-02-02T06:49:22;44.10;;;3.30;;
4377;SDS011;2203;53.686;9.994;2023-02-02T06:51:47;19.43;;;2.97;;
4377;SDS011;2203;53.686;9.994;2023-02-02T06:54:13;15.70;;;2.37;;
4377;SDS011;2203;53.686;9.994;2023-02-02T06:56:38;23.40;;;2.73;;
4377;SDS011;2203;53.686;9.994;2023-02-02T06:59:04;16.67;;;2.67;;
4377;SDS011;2203;53.686;9.994;2023-02-02T07:01:30;33.07;;;2.47;;
4377;SDS011;2203;53.686;9.994;2023-02-02T07:03:55;22.73;;;2.03;;
4377;SDS011;2203;53.686;9.994;2023-02-02T07:06:22;18.87;;;2.30;;
4377;SDS011;2203;53.686;9.994;2023-02-02T07:08:49;23.93;;;2.70;;
4377;SDS011;2203;53.686;9.994;2023-02-02T07:11:15;15.43;;;2.17;;
4377;SDS011;2203;53.686;9.994;2023-02-02T07:13:42;20.20;;;2.07;;
4377;SDS011;2203;53.686;9.994;2023-02-02T07:16:08;21.43;;;3.50;;
4377;SDS011;2203;53.686;9.994;2023-02-02T07:18:34;21.80;;;3.10;;
4377;SDS011;2203;53.686;9.994;2023-02-02T07:21:03;19.70;;;2.83;;
4377;SDS011;2203;53.686;9.994;2023-02-02T07:23:29;25.80;;;3.40;;
4377;SDS011;2203;53.686;9.994;2023-02-02T07:26:02;20.63;;;2.47;;
4377;SDS011;2203;53.686;9.994;2023-02-02T07:28:32;10.60;;;2.10;;
4377;SDS011;2203;53.686;9.994;2023-02-02T07:30:57;17.63;;;2.23;;
4377;SDS011;2203;53.686;9.994;2023-02-02T07:33:23;10.00;;;2.20;;
4377;SDS011;2203;53.686;9.994;2023-02-02T07:35:49;16.00;;;3.50;;
4377;SDS011;2203;53.686;9.994;2023-02-02T07:38:14;13.80;;;1.87;;
4377;SDS011;2203;53.686;9.994;2023-02-02T07:40:39;13.00;;;2.30;;
4377;SDS011;2203;53.686;9.994;2023-02-02T07:43:05;20.17;;;2.70;;
4377;SDS011;2203;53.686;9.994;2023-02-02T07:45:30;28.87;;;2.50;;
4377;SDS011;2203;53.686;9.994;2023-02-02T07:47:58;21.80;;;2.50;;
4377;SDS011;2203;53.686;9.994;2023-02-02T07:50:24;22.17;;;3.20;;
4377;SDS011;2203;53.686;9.994;2023-02-02T07:52:50;18.27;;;2.20;;
4377;SDS011;2203;53.686;9.994;2023-02-02T07:55:16;9.20;;;2.47;;
4377;SDS011;2203;53.686;9.994;2023-02-02T07:57:42;22.90;;;2.57;;
4377;SDS011;2203;53.686;9.994;2023-02-02T08:00:08;30.07;;;2.80;;
4377;SDS011;2203;53.686;9.994;2023-02-02T08:02:34;16.10;;;3.13;;
4377;SDS011;2203;53.686;9.994;2023-02-02T08:04:59;28.90;;;3.43;;
4377;SDS011;2203;53.686;9.994;2023-02-02T08:07:25;20.93;;;2.50;;
4377;SDS011;2203;53.686;9.994;2023-02-02T08:09:50;11.33;;;2.00;;
4377;SDS011;2203;53.686;9.994;2023-02-02T08:12:16;24.03;;;4.93;;
4377;SDS011;2203;53.686;9.994;2023-02-02T08:14:42;30.27;;;3.43;;
4377;SDS011;2203;53.686;9.994;2023-02-02T08:17:07;16.43;;;2.30;;
4377;SDS011;2203;53.686;9.994;2023-02-02T08:19:33;23.87;;;3.00;;
4377;SDS011;2203;53.686;9.994;2023-02-02T08:21:58;19.53;;;2.90;;
4377;SDS011;2203;53.686;9.994;2023-02-02T08:24:23;24.13;;;2.67;;
4377;SDS011;2203;53.686;9.994;2023-02-02T08:26:49;35.17;;;4.90;;
4377;SDS011;2203;53.686;9.994;2023-02-02T08:29:14;26.93;;;3.23;;
4377;SDS011;2203;53.686;9.994;2023-02-02T08:31:41;11.70;;;2.40;;
4377;SDS011;2203;53.686;9.994;2023-02-02T08:34:07;14.33;;;2.07;;
4377;SDS011;2203;53.686;9.994;2023-02-02T08:36:34;33.07;;;3.40;;
4377;SDS011;2203;53.686;9.994;2023-02-02T08:39:03;37.83;;;3.27;;
4377;SDS011;2203;53.686;9.994;2023-02-02T08:41:31;27.53;;;3.03;;
4377;SDS011;2203;53.686;9.994;2023-02-02T08:43:56;23.43;;;2.70;;
4377;SDS011;2203;53.686;9.994;2023-02-02T08:46:22;29.27;;;4.23;;
4377;SDS011;2203;53.686;9.994;2023-02-02T08:48:47;33.77;;;3.77;;
4377;SDS011;2203;53.686;9.994;2023-02-02T08:51:13;16.40;;;2.43;;
4377;SDS011;2203;53.686;9.994;2023-02-02T08:53:41;27.10;;;4.43;;
4377;SDS011;2203;53.686;9.994;2023-02-02T08:56:14;34.27;;;3.77;;
4377;SDS011;2203;53.686;9.994;2023-02-02T08:58:47;28.27;;;2.80;;
4377;SDS011;2203;53.686;9.994;2023-02-02T09:01:16;22.40;;;3.10;;
4377;SDS011;2203;53.686;9.994;2023-02-02T09:03:44;18.33;;;2.30;;
4377;SDS011;2203;53.686;9.994;2023-02-02T09:06:11;23.23;;;2.00;;
4377;SDS011;2203;53.686;9.994;2023-02-02T09:08:38;20.90;;;2.97;;
4377;SDS011;2203;53.686;9.994;2023-02-02T09:13:29;18.40;;;2.50;;
4377;SDS011;2203;53.686;9.994;2023-02-02T09:15:57;20.03;;;2.40;;
4377;SDS011;2203;53.686;9.994;2023-02-02T09:18:23;32.67;;;2.53;;
4377;SDS011;2203;53.686;9.994;2023-02-02T09:20:49;19.83;;;3.10;;
4377;SDS011;2203;53.686;9.994;2023-02-02T09:23:14;18.47;;;2.63;;
4377;SDS011;2203;53.686;9.994;2023-02-02T09:25:39;24.87;;;3.20;;
4377;SDS011;2203;53.686;9.994;2023-02-02T09:28:05;18.23;;;2.90;;
4377;SDS011;2203;53.686;9.994;2023-02-02T09:30:30;31.27;;;3.20;;
4377;SDS011;2203;53.686;9.994;2023-02-02T09:32:56;25.50;;;2.47;;
4377;SDS011;2203;53.686;9.994;2023-02-02T09:35:21;32.30;;;3.70;;
4377;SDS011;2203;53.686;9.994;2023-02-02T09:37:46;30.37;;;2.90;;
4377;SDS011;2203;53.686;9.994;2023-02-02T09:40:16;27.90;;;3.70;;
4377;SDS011;2203;53.686;9.994;2023-02-02T09:45:25;16.53;;;2.90;;
4377;SDS011;2203;53.686;9.994;2023-02-02T09:55:54;23.70;;;2.63;;
4377;SDS011;2203;53.686;9.994;2023-02-02T10:01:39;23.50;;;2.13;;
4377;SDS011;2203;53.686;9.994;2023-02-02T10:04:13;15.93;;;2.70;;
4377;SDS011;2203;53.686;9.994;2023-02-02T10:06:53;26.47;;;2.07;;
4377;SDS011;2203;53.686;9.994;2023-02-02T10:09:29;20.50;;;3.03;;
4377;SDS011;2203;53.686;9.994;2023-02-02T10:15:13;13.40;;;2.40;;
4377;SDS011;2203;53.686;9.994;2023-02-02T10:20:32;24.80;;;2.60;;
4377;SDS011;2203;53.686;9.994;2023-02-02T10:23:29;17.13;;;2.30;;
4377;SDS011;2203;53.686;9.994;2023-02-02T10:31:47;28.80;;;3.50;;
4377;SDS011;2203;53.686;9.994;2023-02-02T10:34:22;23.93;;;2.20;;
4377;SDS011;2203;53.686;9.994;2023-02-02T10:48:49;19.50;;;2.57;;
4377;SDS011;2203;53.686;9.994;2023-02-02T10:53:42;14.30;;;2.20;;
4377;SDS011;2203;53.686;9.994;2023-02-02T10:56:11;16.53;;;2.00;;
4377;SDS011;2203;53.686;9.994;2023-02-02T10:58:39;14.27;;;1.90;;
4377;SDS011;2203;53.686;9.994;2023-02-02T11:01:10;16.60;;;1.97;;
4377;SDS011;2203;53.686;9.994;2023-02-02T11:03:36;13.03;;;2.30;;
4377;SDS011;2203;53.686;9.994;2023-02-02T11:06:03;14.10;;;2.47;;
4377;SDS011;2203;53.686;9.994;2023-02-02T11:08:49;13.33;;;2.40;;
4377;SDS011;2203;53.686;9.994;2023-02-02T11:11:33;15.17;;;2.13;;
4377;SDS011;2203;53.686;9.994;2023-02-02T11:14:07;17.43;;;1.90;;
4377;SDS011;2203;53.686;9.994;2023-02-02T11:16:38;10.83;;;1.90;;
4377;SDS011;2203;53.686;9.994;2023-02-02T11:21:44;10.50;;;2.10;;
4377;SDS011;2203;53.686;9.994;2023-02-02T11:24:20;16.50;;;1.90;;
4377;SDS011;2203;53.686;9.994;2023-02-02T11:26:50;18.80;;;3.03;;
4377;SDS011;2203;53.686;9.994;2023-02-02T11:35:16;25.40;;;3.23;;
4377;SDS011;2203;53.686;9.994;2023-02-02T11:40:28;20.83;;;2.33;;
4377;SDS011;2203;53.686;9.994;2023-02-02T11:43:17;13.60;;;2.40;;
4377;SDS011;2203;53.686;9.994;2023-02-02T11:45:57;20.00;;;1.87;;
4377;SDS011;2203;53.686;9.994;2023-02-02T11:48:45;20.30;;;2.83;;
4377;SDS011;2203;53.686;9.994;2023-02-02T11:51:23;14.10;;;2.00;;
4377;SDS011;2203;53.686;9.994;2023-02-02T11:53:58;16.13;;;1.87;;
4377;SDS011;2203;53.686;9.994;2023-02-02T11:56:27;8.50;;;2.00;;
4377;SDS011;2203;53.686;9.994;2023-02-02T11:58:54;12.87;;;1.83;;
4377;SDS011;2203;53.686;9.994;2023-02-02T12:01:31;12.73;;;1.87;;
4377;SDS011;2203;53.686;9.994;2023-02-02T12:03:59;14.90;;;1.70;;
4377;SDS011;2203;53.686;9.994;2023-02-02T12:09:09;16.63;;;1.97;;
4377;SDS011;2203;53.686;9.994;2023-02-02T12:11:59;19.33;;;1.70;;
4377;SDS011;2203;53.686;9.994;2023-02-02T12:14:44;12.30;;;1.63;;
4377;SDS011;2203;53.686;9.994;2023-02-02T12:20:30;20.10;;;1.80;;
4377;SDS011;2203;53.686;9.994;2023-02-02T12:28:29;15.43;;;1.50;;
4377;SDS011;2203;53.686;9.994;2023-02-02T12:31:02;13.33;;;2.00;;
4377;SDS011;2203;53.686;9.994;2023-02-02T12:41:34;14.47;;;4.03;;
4377;SDS011;2203;53.686;9.994;2023-02-02T12:55:22;7.90;;;1.43;;
4377;SDS011;2203;53.686;9.994;2023-02-02T13:05:43;3.93;;;1.30;;
4377;SDS011;2203;53.686;9.994;2023-02-02T13:08:35;17.80;;;2.00;;
4377;SDS011;2203;53.686;9.994;2023-02-02T13:11:12;24.40;;;2.17;;
4377;SDS011;2203;53.686;9.994;2023-02-02T13:14:01;11.47;;;2.00;;
4377;SDS011;2203;53.686;9.994;2023-02-02T13:16:32;8.00;;;1.77;;
4377;SDS011;2203;53.686;9.994;2023-02-02T13:19:01;11.57;;;2.00;;
4377;SDS011;2203;53.686;9.994;2023-02-02T13:21:28;18.43;;;2.10;;
4377;SDS011;2203;53.686;9.994;2023-02-02T13:23:55;14.77;;;1.73;;
4377;SDS011;2203;53.686;9.994;2023-02-02T13:26:24;17.87;;;2.00;;
4377;SDS011;2203;53.686;9.994;2023-02-02T13:31:40;10.73;;;2.17;;
4377;SDS011;2203;53.686;9.994;2023-02-02T13:34:18;7.00;;;1.40;;
4377;SDS011;2203;53.686;9.994;2023-02-02T13:36:47;11.23;;;1.40;;
4377;SDS011;2203;53.686;9.994;2023-02-02T13:39:25;6.07;;;1.20;;
4377;SDS011;2203;53.686;9.994;2023-02-02T13:42:00;12.67;;;1.67;;
4377;SDS011;2203;53.686;9.994;2023-02-02T13:47:02;7.80;;;1.10;;
4377;SDS011;2203;53.686;9.994;2023-02-02T13:49:33;15.40;;;2.50;;
4377;SDS011;2203;53.686;9.994;2023-02-02T14:05:20;11.60;;;2.23;;
4377;SDS011;2203;53.686;9.994;2023-02-02T14:07:52;21.70;;;2.53;;
4377;SDS011;2203;53.686;9.994;2023-02-02T14:12:49;12.33;;;1.63;;
4377;SDS011;2203;53.686;9.994;2023-02-02T14:15:14;8.67;;;2.33;;
4377;SDS011;2203;53.686;9.994;2023-02-02T14:20:11;21.43;;;2.10;;
4377;SDS011;2203;53.686;9.994;2023-02-02T14:26:10;11.43;;;1.33;;
4377;SDS011;2203;53.686;9.994;2023-02-02T14:28:37;6.20;;;1.17;;
4377;SDS011;2203;53.686;9.994;2023-02-02T14:36:52;8.50;;;1.73;;
4377;SDS011;2203;53.686;9.994;2023-02-02T14:39:29;13.77;;;1.37;;
4377;SDS011;2203;53.686;9.994;2023-02-02T14:45:33;7.40;;;1.10;;
4377;SDS011;2203;53.686;9.994;2023-02-02T14:48:08;9.93;;;1.40;;
4377;SDS011;2203;53.686;9.994;2023-02-02T14:53:04;12.03;;;1.60;;
4377;SDS011;2203;53.686;9.994;2023-02-02T14:55:32;11.90;;;2.10;;
4377;SDS011;2203;53.686;9.994;2023-02-02T14:58:01;13.63;;;1.30;;
4377;SDS011;2203;53.686;9.994;2023-02-02T15:00:29;14.67;;;2.23;;
4377;SDS011;2203;53.686;9.994;2023-02-02T15:03:19;6.67;;;1.40;;
4377;SDS011;2203;53.686;9.994;2023-02-02T15:06:00;16.83;;;1.30;;
4377;SDS011;2203;53.686;9.994;2023-02-02T15:08:28;8.40;;;1.40;;
4377;SDS011;2203;53.686;9.994;2023-02-02T15:13:30;8.73;;;1.70;;
4377;SDS011;2203;53.686;9.994;2023-02-02T15:16:06;25.40;;;2.67;;
4377;SDS011;2203;53.686;9.994;2023-02-02T15:18:43;11.70;;;2.00;;
4377;SDS011;2203;53.686;9.994;2023-02-02T15:21:09;12.63;;;2.00;;
4377;SDS011;2203;53.686;9.994;2023-02-02T15:23:40;15.27;;;2.20;;
4377;SDS011;2203;53.686;9.994;2023-02-02T15:26:12;17.23;;;2.17;;
4377;SDS011;2203;53.686;9.994;2023-02-02T15:28:50;7.97;;;1.50;;
4377;SDS011;2203;53.686;9.994;2023-02-02T15:31:32;13.77;;;1.87;;
4377;SDS011;2203;53.686;9.994;2023-02-02T15:34:21;11.30;;;2.20;;
4377;SDS011;2203;53.686;9.994;2023-02-02T15:36:50;9.30;;;2.00;;
4377;SDS011;2203;53.686;9.994;2023-02-02T15:39:31;12.47;;;1.90;;
4377;SDS011;2203;53.686;9.994;2023-02-02T15:42:00;13.80;;;2.77;;
4377;SDS011;2203;53.686;9.994;2023-02-02T15:44:45;22.40;;;2.50;;
4377;SDS011;2203;53.686;9.994;2023-02-02T15:47:11;12.90;;;2.47;;
4377;SDS011;2203;53.686;9.994;2023-02-02T15:49:40;14.03;;;2.00;;
4377;SDS011;2203;53.686;9.994;2023-02-02T15:52:10;19.03;;;2.40;;
4377;SDS011;2203;53.686;9.994;2023-02-02T15:57:22;13.63;;;1.97;;
4377;SDS011;2203;53.686;9.994;2023-02-02T15:59:50;9.70;;;1.90;;
4377;SDS011;2203;53.686;9.994;2023-02-02T16:04:50;18.37;;;2.47;;
4377;SDS011;2203;53.686;9.994;2023-02-02T16:07:20;6.43;;;1.33;;
4377;SDS011;2203;53.686;9.994;2023-02-02T16:09:48;25.73;;;2.40;;
4377;SDS011;2203;53.686;9.994;2023-02-02T16:12:15;7.80;;;1.73;;
4377;SDS011;2203;53.686;9.994;2023-02-02T16:14:49;12.57;;;1.90;;
4377;SDS011;2203;53.686;9.994;2023-02-02T16:17:20;15.33;;;1.97;;
4377;SDS011;2203;53.686;9.994;2023-02-02T16:19:48;11.70;;;1.93;;
4377;SDS011;2203;53.686;9.994;2023-02-02T16:22:15;24.23;;;2.87;;
4377;SDS011;2203;53.686;9.994;2023-02-02T16:24:44;13.17;;;2.00;;
4377;SDS011;2203;53.686;9.994;2023-02-02T16:27:13;21.17;;;2.20;;
4377;SDS011;2203;53.686;9.994;2023-02-02T16:29:42;11.53;;;2.03;;
4377;SDS011;2203;53.686;9.994;2023-02-02T16:35:29;10.87;;;2.50;;
4377;SDS011;2203;53.686;9.994;2023-02-02T16:38:13;16.30;;;2.57;;
4377;SDS011;2203;53.686;9.994;2023-02-02T16:40:41;9.17;;;2.67;;
4377;SDS011;2203;53.686;9.994;2023-02-02T16:45:44;27.67;;;3.00;;
4377;SDS011;2203;53.686;9.994;2023-02-02T16:53:40;13.93;;;2.40;;
4377;SDS011;2203;53.686;9.994;2023-02-02T16:56:10;18.47;;;3.00;;
4377;SDS011;2203;53.686;9.994;2023-02-02T16:58:59;15.83;;;2.50;;
4377;SDS011;2203;53.686;9.994;2023-02-02T17:01:41;18.73;;;2.87;;
4377;SDS011;2203;53.686;9.994;2023-02-02T17:04:15;15.23;;;3.73;;
4377;SDS011;2203;53.686;9.994;2023-02-02T17:06:42;18.73;;;2.90;;
4377;SDS011;2203;53.686;9.994;2023-02-02T17:09:15;27.57;;;3.43;;
4377;SDS011;2203;53.686;9.994;2023-02-02T17:12:30;10.47;;;2.83;;
4377;SDS011;2203;53.686;9.994;2023-02-02T17:14:48;16.77;;;2.43;;
4377;SDS011;2203;53.686;9.994;2023-02-02T17:17:23;14.80;;;3.10;;
4377;SDS011;2203;53.686;9.994;2023-02-02T17:19:49;17.63;;;4.00;;
4377;SDS011;2203;53.686;9.994;2023-02-02T17:22:15;18.60;;;4.23;;
4377;SDS011;2203;53.686;9.994;2023-02-02T17:24:43;19.43;;;5.03;;
4377;SDS011;2203;53.686;9.994;2023-02-02T17:27:11;21.30;;;5.77;;
4377;SDS011;2203;53.686;9.994;2023-02-02T17:29:39;29.00;;;5.70;;
4377;SDS011;2203;53.686;9.994;2023-02-02T17:32:05;25.23;;;5.70;;
4377;SDS011;2203;53.686;9.994;2023-02-02T17:34:30;17.73;;;5.27;;
4377;SDS011;2203;53.686;9.994;2023-02-02T17:36:56;24.00;;;6.10;;
4377;SDS011;2203;53.686;9.994;2023-02-02T17:39:21;22.77;;;5.77;;
4377;SDS011;2203;53.686;9.994;2023-02-02T17:41:47;37.37;;;10.33;;
4377;SDS011;2203;53.686;9.994;2023-02-02T17:44:12;29.40;;;7.33;;
4377;SDS011;2203;53.686;9.994;2023-02-02T17:46:38;19.03;;;6.10;;
4377;SDS011;2203;53.686;9.994;2023-02-02T17:49:03;17.63;;;5.70;;
4377;SDS011;2203;53.686;9.994;2023-02-02T17:51:29;20.27;;;6.40;;
4377;SDS011;2203;53.686;9.994;2023-02-02T17:53:54;24.37;;;7.30;;
4377;SDS011;2203;53.686;9.994;2023-02-02T17:56:23;35.93;;;6.80;;
4377;SDS011;2203;53.686;9.994;2023-02-02T17:58:49;25.00;;;7.37;;
4377;SDS011;2203;53.686;9.994;2023-02-02T18:01:15;18.33;;;6.63;;
4377;SDS011;2203;53.686;9.994;2023-02-02T18:03:42;26.23;;;6.17;;
4377;SDS011;2203;53.686;9.994;2023-02-02T18:06:09;26.37;;;6.70;;